sensor_id;sensor_type;location;lat;lon;timestamp;P1;durP1;ratioP1;P2;durP2;ratioP2
22705;SDS011;11520;51.198;4.468;2022-12-11T00:01:12;32.50;;;17.48;;
22705;SDS011;11520;51.198;4.468;2022-12-11T00:03:40;30.83;;;16.98;;
22705;SDS011;11520;51.198;4.468;2022-12-11T00:06:06;29.70;;;17.35;;
22705;SDS011;11520;51.198;4.468;2022-12-11T00:08:34;30.63;;;17.92;;
22705;SDS011;11520;51.198;4.468;2022-12-11T00:11:04;29.42;;;17.40;;
22705;SDS011;11520;51.198;4.468;2022-12-11T00:13:33;31.38;;;17.80;;
22705;SDS011;11520;51.198;4.468;2022-12-11T00:16:00;31.80;;;17.63;;
22705;SDS011;11520;51.198;4.468;2022-12-11T00:18:25;35.97;;;18.55;;
22705;SDS011;11520;51.198;4.468;2022-12-11T00:23:25;24.35;;;15.27;;
22705;SDS011;11520;51.198;4.468;2022-12-11T00:25:54;28.08;;;16.15;;
22705;SDS011;11520;51.198;4.468;2022-12-11T00:28:21;32.15;;;17.10;;
22705;SDS011;11520;51.198;4.468;2022-12-11T00:30:50;30.02;;;18.23;;
22705;SDS011;11520;51.198;4.468;2022-12-11T00:33:15;32.95;;;18.23;;
22705;SDS011;11520;51.198;4.468;2022-12-11T00:35:42;33.17;;;17.95;;
22705;SDS011;11520;51.198;4.468;2022-12-11T00:38:15;29.70;;;17.35;;
22705;SDS011;11520;51.198;4.468;2022-12-11T00:40:45;34.05;;;18.65;;
22705;SDS011;11520;51.198;4.468;2022-12-11T00:43:11;34.83;;;17.35;;
22705;SDS011;11520;51.198;4.468;2022-12-11T00:45:46;34.60;;;19.10;;
22705;SDS011;11520;51.198;4.468;2022-12-11T00:48:22;36.42;;;19.23;;
22705;SDS011;11520;51.198;4.468;2022-12-11T00:50:49;31.63;;;18.00;;
22705;SDS011;11520;51.198;4.468;2022-12-11T00:53:15;33.28;;;18.20;;
22705;SDS011;11520;51.198;4.468;2022-12-11T00:55:43;32.22;;;18.38;;
22705;SDS011;11520;51.198;4.468;2022-12-11T00:58:10;28.90;;;17.17;;
22705;SDS011;11520;51.198;4.468;2022-12-11T01:00:38;31.02;;;17.25;;
22705;SDS011;11520;51.198;4.468;2022-12-11T01:03:06;32.38;;;18.15;;
22705;SDS011;11520;51.198;4.468;2022-12-11T01:05:34;29.42;;;17.45;;
22705;SDS011;11520;51.198;4.468;2022-12-11T01:08:01;32.78;;;17.20;;
22705;SDS011;11520;51.198;4.468;2022-12-11T01:10:27;32.33;;;17.60;;
22705;SDS011;11520;51.198;4.468;2022-12-11T01:12:54;30.58;;;15.95;;
22705;SDS011;11520;51.198;4.468;2022-12-11T01:15:34;29.20;;;16.05;;
22705;SDS011;11520;51.198;4.468;2022-12-11T01:18:04;30.60;;;16.15;;
22705;SDS011;11520;51.198;4.468;2022-12-11T01:20:33;27.15;;;14.98;;
22705;SDS011;11520;51.198;4.468;2022-12-11T01:22:59;28.15;;;15.90;;
22705;SDS011;11520;51.198;4.468;2022-12-11T01:27:54;25.40;;;14.38;;
22705;SDS011;11520;51.198;4.468;2022-12-11T01:30:21;26.08;;;14.48;;
22705;SDS011;11520;51.198;4.468;2022-12-11T01:32:48;30.55;;;15.63;;
22705;SDS011;11520;51.198;4.468;2022-12-11T01:35:16;26.83;;;15.32;;
22705;SDS011;11520;51.198;4.468;2022-12-11T01:37:49;27.38;;;15.50;;
22705;SDS011;11520;51.198;4.468;2022-12-11T01:40:18;30.15;;;15.85;;
22705;SDS011;11520;51.198;4.468;2022-12-11T01:42:45;25.80;;;14.95;;
22705;SDS011;11520;51.198;4.468;2022-12-11T01:45:25;26.75;;;15.80;;
22705;SDS011;11520;51.198;4.468;2022-12-11T01:55:19;25.88;;;15.38;;
22705;SDS011;11520;51.198;4.468;2022-12-11T01:57:50;28.75;;;15.35;;
22705;SDS011;11520;51.198;4.468;2022-12-11T02:00:18;26.45;;;15.27;;
22705;SDS011;11520;51.198;4.468;2022-12-11T02:02:52;27.90;;;15.55;;
22705;SDS011;11520;51.198;4.468;2022-12-11T02:05:18;31.35;;;16.10;;
22705;SDS011;11520;51.198;4.468;2022-12-11T02:07:51;29.17;;;15.57;;
22705;SDS011;11520;51.198;4.468;2022-12-11T02:10:21;27.23;;;14.88;;
22705;SDS011;11520;51.198;4.468;2022-12-11T02:13:17;29.23;;;15.52;;
22705;SDS011;11520;51.198;4.468;2022-12-11T02:18:46;28.50;;;15.52;;
22705;SDS011;11520;51.198;4.468;2022-12-11T02:21:25;29.98;;;15.38;;
22705;SDS011;11520;51.198;4.468;2022-12-11T02:24:00;30.20;;;15.73;;
22705;SDS011;11520;51.198;4.468;2022-12-11T02:26:35;31.30;;;15.38;;
22705;SDS011;11520;51.198;4.468;2022-12-11T02:29:33;29.23;;;15.77;;
22705;SDS011;11520;51.198;4.468;2022-12-11T02:32:18;23.75;;;14.00;;
22705;SDS011;11520;51.198;4.468;2022-12-11T02:34:55;28.02;;;14.25;;
22705;SDS011;11520;51.198;4.468;2022-12-11T02:37:26;28.10;;;14.02;;
22705;SDS011;11520;51.198;4.468;2022-12-11T02:39:57;28.35;;;15.48;;
22705;SDS011;11520;51.198;4.468;2022-12-11T02:42:23;28.38;;;14.60;;
22705;SDS011;11520;51.198;4.468;2022-12-11T02:44:54;32.20;;;15.90;;
22705;SDS011;11520;51.198;4.468;2022-12-11T02:47:23;27.25;;;14.93;;
22705;SDS011;11520;51.198;4.468;2022-12-11T02:49:51;29.80;;;14.80;;
22705;SDS011;11520;51.198;4.468;2022-12-11T02:52:23;30.80;;;15.77;;
22705;SDS011;11520;51.198;4.468;2022-12-11T02:54:51;31.67;;;15.80;;
22705;SDS011;11520;51.198;4.468;2022-12-11T03:00:17;28.02;;;14.40;;
22705;SDS011;11520;51.198;4.468;2022-12-11T03:02:43;30.73;;;15.65;;
22705;SDS011;11520;51.198;4.468;2022-12-11T03:05:10;28.30;;;15.00;;
22705;SDS011;11520;51.198;4.468;2022-12-11T03:07:38;30.73;;;15.57;;
22705;SDS011;11520;51.198;4.468;2022-12-11T03:10:06;30.88;;;15.95;;
22705;SDS011;11520;51.198;4.468;2022-12-11T03:12:35;31.75;;;15.27;;
22705;SDS011;11520;51.198;4.468;2022-12-11T03:15:05;32.80;;;15.55;;
22705;SDS011;11520;51.198;4.468;2022-12-11T03:20:11;30.38;;;15.80;;
22705;SDS011;11520;51.198;4.468;2022-12-11T03:25:46;34.70;;;16.77;;
22705;SDS011;11520;51.198;4.468;2022-12-11T03:28:23;30.67;;;16.38;;
22705;SDS011;11520;51.198;4.468;2022-12-11T03:36:16;34.33;;;15.68;;
22705;SDS011;11520;51.198;4.468;2022-12-11T03:38:50;28.45;;;15.52;;
22705;SDS011;11520;51.198;4.468;2022-12-11T03:41:21;33.50;;;15.68;;
22705;SDS011;11520;51.198;4.468;2022-12-11T03:43:50;29.98;;;15.13;;
22705;SDS011;11520;51.198;4.468;2022-12-11T03:46:19;35.65;;;16.65;;
22705;SDS011;11520;51.198;4.468;2022-12-11T03:48:48;30.98;;;16.55;;
22705;SDS011;11520;51.198;4.468;2022-12-11T03:51:15;33.65;;;15.68;;
22705;SDS011;11520;51.198;4.468;2022-12-11T03:53:42;30.85;;;16.88;;
22705;SDS011;11520;51.198;4.468;2022-12-11T03:56:10;34.83;;;18.00;;
22705;SDS011;11520;51.198;4.468;2022-12-11T03:58:39;33.13;;;16.65;;
22705;SDS011;11520;51.198;4.468;2022-12-11T04:01:07;32.85;;;17.42;;
22705;SDS011;11520;51.198;4.468;2022-12-11T04:03:36;30.67;;;15.57;;
22705;SDS011;11520;51.198;4.468;2022-12-11T04:06:04;34.25;;;17.70;;
22705;SDS011;11520;51.198;4.468;2022-12-11T04:08:30;33.08;;;17.25;;
22705;SDS011;11520;51.198;4.468;2022-12-11T04:10:57;32.60;;;16.90;;
22705;SDS011;11520;51.198;4.468;2022-12-11T04:13:41;36.97;;;16.92;;
22705;SDS011;11520;51.198;4.468;2022-12-11T04:16:07;32.33;;;16.55;;
22705;SDS011;11520;51.198;4.468;2022-12-11T04:18:33;35.47;;;16.60;;
22705;SDS011;11520;51.198;4.468;2022-12-11T04:21:18;35.95;;;17.27;;
22705;SDS011;11520;51.198;4.468;2022-12-11T04:24:02;37.80;;;17.85;;
22705;SDS011;11520;51.198;4.468;2022-12-11T04:26:44;31.70;;;16.70;;
22705;SDS011;11520;51.198;4.468;2022-12-11T04:29:11;36.80;;;18.00;;
22705;SDS011;11520;51.198;4.468;2022-12-11T04:31:39;33.80;;;17.77;;
22705;SDS011;11520;51.198;4.468;2022-12-11T04:34:04;34.55;;;17.70;;
22705;SDS011;11520;51.198;4.468;2022-12-11T04:36:30;35.80;;;17.75;;
22705;SDS011;11520;51.198;4.468;2022-12-11T04:41:25;32.83;;;16.60;;
22705;SDS011;11520;51.198;4.468;2022-12-11T04:43:52;32.67;;;17.08;;
22705;SDS011;11520;51.198;4.468;2022-12-11T04:46:19;33.92;;;17.10;;
22705;SDS011;11520;51.198;4.468;2022-12-11T04:48:47;33.00;;;17.25;;
22705;SDS011;11520;51.198;4.468;2022-12-11T04:51:13;32.40;;;16.63;;
22705;SDS011;11520;51.198;4.468;2022-12-11T04:53:39;36.97;;;18.40;;
22705;SDS011;11520;51.198;4.468;2022-12-11T04:56:06;34.55;;;18.00;;
22705;SDS011;11520;51.198;4.468;2022-12-11T04:58:33;35.35;;;18.70;;
22705;SDS011;11520;51.198;4.468;2022-12-11T05:01:15;36.28;;;18.50;;
22705;SDS011;11520;51.198;4.468;2022-12-11T05:03:42;31.70;;;17.20;;
22705;SDS011;11520;51.198;4.468;2022-12-11T05:06:08;35.33;;;18.58;;
22705;SDS011;11520;51.198;4.468;2022-12-11T05:08:35;33.33;;;18.52;;
22705;SDS011;11520;51.198;4.468;2022-12-11T05:11:04;35.03;;;19.80;;
22705;SDS011;11520;51.198;4.468;2022-12-11T05:13:31;32.53;;;18.55;;
22705;SDS011;11520;51.198;4.468;2022-12-11T05:15:57;39.45;;;19.20;;
22705;SDS011;11520;51.198;4.468;2022-12-11T05:18:23;38.17;;;18.83;;
22705;SDS011;11520;51.198;4.468;2022-12-11T05:20:55;37.30;;;19.92;;
22705;SDS011;11520;51.198;4.468;2022-12-11T05:23:24;41.08;;;19.92;;
22705;SDS011;11520;51.198;4.468;2022-12-11T05:25:54;36.17;;;18.95;;
22705;SDS011;11520;51.198;4.468;2022-12-11T05:28:23;35.47;;;19.08;;
22705;SDS011;11520;51.198;4.468;2022-12-11T05:30:59;38.63;;;20.20;;
22705;SDS011;11520;51.198;4.468;2022-12-11T05:36:21;36.08;;;19.25;;
22705;SDS011;11520;51.198;4.468;2022-12-11T05:38:49;41.50;;;21.17;;
22705;SDS011;11520;51.198;4.468;2022-12-11T05:41:19;37.38;;;20.67;;
22705;SDS011;11520;51.198;4.468;2022-12-11T05:43:47;40.92;;;20.00;;
22705;SDS011;11520;51.198;4.468;2022-12-11T05:46:21;39.17;;;19.83;;
22705;SDS011;11520;51.198;4.468;2022-12-11T05:48:50;42.78;;;21.98;;
22705;SDS011;11520;51.198;4.468;2022-12-11T05:51:39;39.70;;;21.48;;
22705;SDS011;11520;51.198;4.468;2022-12-11T05:54:05;38.55;;;20.65;;
22705;SDS011;11520;51.198;4.468;2022-12-11T05:56:33;41.55;;;21.48;;
22705;SDS011;11520;51.198;4.468;2022-12-11T05:59:01;39.85;;;20.30;;
22705;SDS011;11520;51.198;4.468;2022-12-11T06:01:30;39.90;;;19.85;;
22705;SDS011;11520;51.198;4.468;2022-12-11T06:03:58;41.45;;;20.25;;
22705;SDS011;11520;51.198;4.468;2022-12-11T06:06:26;40.75;;;21.83;;
22705;SDS011;11520;51.198;4.468;2022-12-11T06:08:53;42.22;;;20.13;;
22705;SDS011;11520;51.198;4.468;2022-12-11T06:11:21;39.75;;;19.98;;
22705;SDS011;11520;51.198;4.468;2022-12-11T06:13:49;41.30;;;19.77;;
22705;SDS011;11520;51.198;4.468;2022-12-11T06:16:15;36.60;;;19.52;;
22705;SDS011;11520;51.198;4.468;2022-12-11T06:18:43;39.38;;;21.13;;
22705;SDS011;11520;51.198;4.468;2022-12-11T06:21:17;36.63;;;19.83;;
22705;SDS011;11520;51.198;4.468;2022-12-11T06:23:47;39.78;;;20.05;;
22705;SDS011;11520;51.198;4.468;2022-12-11T06:26:17;38.85;;;20.05;;
22705;SDS011;11520;51.198;4.468;2022-12-11T06:28:43;41.58;;;20.23;;
22705;SDS011;11520;51.198;4.468;2022-12-11T06:31:11;38.08;;;19.95;;
22705;SDS011;11520;51.198;4.468;2022-12-11T06:33:37;43.25;;;21.15;;
22705;SDS011;11520;51.198;4.468;2022-12-11T06:36:03;44.65;;;20.38;;
22705;SDS011;11520;51.198;4.468;2022-12-11T06:38:31;43.05;;;21.98;;
22705;SDS011;11520;51.198;4.468;2022-12-11T06:40:57;40.17;;;20.83;;
22705;SDS011;11520;51.198;4.468;2022-12-11T06:43:30;47.75;;;22.70;;
22705;SDS011;11520;51.198;4.468;2022-12-11T06:45:58;40.15;;;20.30;;
22705;SDS011;11520;51.198;4.468;2022-12-11T06:48:23;46.45;;;21.73;;
22705;SDS011;11520;51.198;4.468;2022-12-11T06:50:52;44.13;;;22.30;;
22705;SDS011;11520;51.198;4.468;2022-12-11T06:53:25;42.85;;;21.73;;
22705;SDS011;11520;51.198;4.468;2022-12-11T06:55:51;49.00;;;22.83;;
22705;SDS011;11520;51.198;4.468;2022-12-11T06:58:19;39.97;;;20.52;;
22705;SDS011;11520;51.198;4.468;2022-12-11T07:00:45;44.92;;;21.88;;
22705;SDS011;11520;51.198;4.468;2022-12-11T07:03:11;46.95;;;22.90;;
22705;SDS011;11520;51.198;4.468;2022-12-11T07:05:37;45.92;;;22.73;;
22705;SDS011;11520;51.198;4.468;2022-12-11T07:08:06;42.70;;;21.85;;
22705;SDS011;11520;51.198;4.468;2022-12-11T07:10:32;45.13;;;21.13;;
22705;SDS011;11520;51.198;4.468;2022-12-11T07:12:59;45.40;;;22.00;;
22705;SDS011;11520;51.198;4.468;2022-12-11T07:15:26;45.97;;;21.88;;
22705;SDS011;11520;51.198;4.468;2022-12-11T07:17:51;44.53;;;21.52;;
22705;SDS011;11520;51.198;4.468;2022-12-11T07:22:47;48.78;;;21.92;;
22705;SDS011;11520;51.198;4.468;2022-12-11T07:25:15;43.88;;;21.40;;
22705;SDS011;11520;51.198;4.468;2022-12-11T07:27:40;47.55;;;21.95;;
22705;SDS011;11520;51.198;4.468;2022-12-11T07:30:08;51.05;;;23.67;;
22705;SDS011;11520;51.198;4.468;2022-12-11T07:32:35;47.97;;;21.88;;
22705;SDS011;11520;51.198;4.468;2022-12-11T07:35:00;45.78;;;21.48;;
22705;SDS011;11520;51.198;4.468;2022-12-11T07:37:26;48.38;;;23.02;;
22705;SDS011;11520;51.198;4.468;2022-12-11T07:39:58;51.20;;;22.65;;
22705;SDS011;11520;51.198;4.468;2022-12-11T07:42:25;46.30;;;22.30;;
22705;SDS011;11520;51.198;4.468;2022-12-11T07:44:51;45.83;;;21.42;;
22705;SDS011;11520;51.198;4.468;2022-12-11T07:47:16;43.90;;;20.85;;
22705;SDS011;11520;51.198;4.468;2022-12-11T07:49:43;47.92;;;21.27;;
22705;SDS011;11520;51.198;4.468;2022-12-11T07:52:08;51.17;;;21.63;;
22705;SDS011;11520;51.198;4.468;2022-12-11T07:54:36;50.60;;;22.50;;
22705;SDS011;11520;51.198;4.468;2022-12-11T07:57:09;53.25;;;23.90;;
22705;SDS011;11520;51.198;4.468;2022-12-11T07:59:38;53.25;;;23.45;;
22705;SDS011;11520;51.198;4.468;2022-12-11T08:04:49;53.00;;;22.90;;
22705;SDS011;11520;51.198;4.468;2022-12-11T08:09:45;47.70;;;21.60;;
22705;SDS011;11520;51.198;4.468;2022-12-11T08:14:40;55.00;;;24.17;;
22705;SDS011;11520;51.198;4.468;2022-12-11T08:17:05;47.53;;;22.83;;
22705;SDS011;11520;51.198;4.468;2022-12-11T08:19:31;49.78;;;23.65;;
22705;SDS011;11520;51.198;4.468;2022-12-11T08:21:57;45.20;;;22.92;;
22705;SDS011;11520;51.198;4.468;2022-12-11T08:24:24;54.72;;;23.45;;
22705;SDS011;11520;51.198;4.468;2022-12-11T08:26:51;54.90;;;24.55;;
22705;SDS011;11520;51.198;4.468;2022-12-11T08:29:18;50.20;;;25.80;;
22705;SDS011;11520;51.198;4.468;2022-12-11T08:34:14;54.83;;;25.27;;
22705;SDS011;11520;51.198;4.468;2022-12-11T08:36:42;49.67;;;25.33;;
22705;SDS011;11520;51.198;4.468;2022-12-11T08:39:09;53.60;;;25.73;;
22705;SDS011;11520;51.198;4.468;2022-12-11T08:41:35;59.13;;;25.67;;
22705;SDS011;11520;51.198;4.468;2022-12-11T08:44:03;52.85;;;24.38;;
22705;SDS011;11520;51.198;4.468;2022-12-11T08:46:29;54.85;;;24.58;;
22705;SDS011;11520;51.198;4.468;2022-12-11T08:48:58;50.72;;;24.73;;
22705;SDS011;11520;51.198;4.468;2022-12-11T08:51:25;47.63;;;23.63;;
22705;SDS011;11520;51.198;4.468;2022-12-11T08:53:58;56.40;;;25.30;;
22705;SDS011;11520;51.198;4.468;2022-12-11T08:56:27;50.25;;;24.15;;
22705;SDS011;11520;51.198;4.468;2022-12-11T08:58:54;46.80;;;22.08;;
22705;SDS011;11520;51.198;4.468;2022-12-11T09:01:25;49.78;;;22.90;;
22705;SDS011;11520;51.198;4.468;2022-12-11T09:03:54;49.03;;;23.20;;
22705;SDS011;11520;51.198;4.468;2022-12-11T09:06:21;48.58;;;22.30;;
22705;SDS011;11520;51.198;4.468;2022-12-11T09:08:52;43.95;;;21.70;;
22705;SDS011;11520;51.198;4.468;2022-12-11T09:11:23;45.05;;;21.85;;
22705;SDS011;11520;51.198;4.468;2022-12-11T09:13:51;48.53;;;23.67;;
22705;SDS011;11520;51.198;4.468;2022-12-11T09:16:21;52.08;;;23.50;;
22705;SDS011;11520;51.198;4.468;2022-12-11T09:18:51;52.33;;;23.25;;
22705;SDS011;11520;51.198;4.468;2022-12-11T09:21:21;47.85;;;23.15;;
22705;SDS011;11520;51.198;4.468;2022-12-11T09:23:51;49.25;;;23.20;;
22705;SDS011;11520;51.198;4.468;2022-12-11T09:26:20;45.60;;;22.45;;
22705;SDS011;11520;51.198;4.468;2022-12-11T09:28:45;46.83;;;22.08;;
22705;SDS011;11520;51.198;4.468;2022-12-11T09:31:14;47.92;;;21.65;;
22705;SDS011;11520;51.198;4.468;2022-12-11T09:33:48;52.78;;;22.27;;
22705;SDS011;11520;51.198;4.468;2022-12-11T09:36:16;49.58;;;23.52;;
22705;SDS011;11520;51.198;4.468;2022-12-11T09:38:42;50.22;;;22.27;;
22705;SDS011;11520;51.198;4.468;2022-12-11T09:46:46;47.00;;;22.90;;
22705;SDS011;11520;51.198;4.468;2022-12-11T09:54:29;45.53;;;22.13;;
22705;SDS011;11520;51.198;4.468;2022-12-11T10:16:49;45.75;;;20.77;;
22705;SDS011;11520;51.198;4.468;2022-12-11T10:19:29;41.67;;;19.30;;
22705;SDS011;11520;51.198;4.468;2022-12-11T10:21:58;45.08;;;20.25;;
22705;SDS011;11520;51.198;4.468;2022-12-11T10:24:43;41.88;;;19.50;;
22705;SDS011;11520;51.198;4.468;2022-12-11T10:27:16;39.65;;;19.52;;
22705;SDS011;11520;51.198;4.468;2022-12-11T10:29:58;44.75;;;20.90;;
22705;SDS011;11520;51.198;4.468;2022-12-11T10:32:28;43.15;;;19.55;;
22705;SDS011;11520;51.198;4.468;2022-12-11T10:35:25;42.35;;;19.83;;
22705;SDS011;11520;51.198;4.468;2022-12-11T10:41:08;43.80;;;21.65;;
22705;SDS011;11520;51.198;4.468;2022-12-11T10:43:42;43.75;;;20.35;;
22705;SDS011;11520;51.198;4.468;2022-12-11T10:46:14;44.90;;;21.30;;
22705;SDS011;11520;51.198;4.468;2022-12-11T10:48:55;47.10;;;22.00;;
22705;SDS011;11520;51.198;4.468;2022-12-11T10:51:23;46.80;;;23.25;;
22705;SDS011;11520;51.198;4.468;2022-12-11T10:56:51;43.60;;;20.98;;
22705;SDS011;11520;51.198;4.468;2022-12-11T10:59:27;41.25;;;20.58;;
22705;SDS011;11520;51.198;4.468;2022-12-11T11:04:40;36.00;;;19.25;;
22705;SDS011;11520;51.198;4.468;2022-12-11T11:07:30;41.58;;;20.08;;
22705;SDS011;11520;51.198;4.468;2022-12-11T11:12:48;40.95;;;20.10;;
22705;SDS011;11520;51.198;4.468;2022-12-11T11:15:36;39.75;;;18.73;;
22705;SDS011;11520;51.198;4.468;2022-12-11T11:23:10;39.90;;;20.02;;
22705;SDS011;11520;51.198;4.468;2022-12-11T11:25:39;43.10;;;21.23;;
22705;SDS011;11520;51.198;4.468;2022-12-11T11:33:35;43.60;;;21.27;;
22705;SDS011;11520;51.198;4.468;2022-12-11T11:36:22;38.92;;;20.55;;
22705;SDS011;11520;51.198;4.468;2022-12-11T11:48:30;33.25;;;16.65;;
22705;SDS011;11520;51.198;4.468;2022-12-11T11:50:44;33.08;;;17.10;;
22705;SDS011;11520;51.198;4.468;2022-12-11T11:53:12;28.42;;;15.80;;
22705;SDS011;11520;51.198;4.468;2022-12-11T11:56:21;29.50;;;15.40;;
22705;SDS011;11520;51.198;4.468;2022-12-11T12:01:44;32.75;;;16.55;;
22705;SDS011;11520;51.198;4.468;2022-12-11T12:04:11;29.38;;;15.82;;
22705;SDS011;11520;51.198;4.468;2022-12-11T12:09:44;37.53;;;18.50;;
22705;SDS011;11520;51.198;4.468;2022-12-11T12:20:17;37.85;;;18.23;;
22705;SDS011;11520;51.198;4.468;2022-12-11T12:34:55;32.42;;;16.63;;
22705;SDS011;11520;51.198;4.468;2022-12-11T12:43:31;36.85;;;17.17;;
22705;SDS011;11520;51.198;4.468;2022-12-11T12:49:06;34.60;;;17.88;;
22705;SDS011;11520;51.198;4.468;2022-12-11T12:51:44;33.80;;;18.80;;
22705;SDS011;11520;51.198;4.468;2022-12-11T13:00:24;34.80;;;18.13;;
22705;SDS011;11520;51.198;4.468;2022-12-11T13:11:07;32.88;;;16.73;;
22705;SDS011;11520;51.198;4.468;2022-12-11T13:13:38;32.08;;;17.10;;
22705;SDS011;11520;51.198;4.468;2022-12-11T13:18:44;38.58;;;17.25;;
22705;SDS011;11520;51.198;4.468;2022-12-11T13:23:53;29.90;;;14.18;;
22705;SDS011;11520;51.198;4.468;2022-12-11T13:26:36;27.23;;;13.23;;
22705;SDS011;11520;51.198;4.468;2022-12-11T13:29:04;30.75;;;13.57;;
22705;SDS011;11520;51.198;4.468;2022-12-11T13:31:33;26.10;;;13.00;;
22705;SDS011;11520;51.198;4.468;2022-12-11T13:45:47;34.55;;;15.13;;
22705;SDS011;11520;51.198;4.468;2022-12-11T13:48:23;34.05;;;15.25;;
22705;SDS011;11520;51.198;4.468;2022-12-11T13:51:17;29.27;;;14.00;;
22705;SDS011;11520;51.198;4.468;2022-12-11T13:56:28;35.03;;;15.88;;
22705;SDS011;11520;51.198;4.468;2022-12-11T13:58:56;34.90;;;15.07;;
22705;SDS011;11520;51.198;4.468;2022-12-11T14:01:26;30.45;;;15.02;;
22705;SDS011;11520;51.198;4.468;2022-12-11T14:06:30;34.97;;;16.15;;
22705;SDS011;11520;51.198;4.468;2022-12-11T14:09:06;33.33;;;15.20;;
22705;SDS011;11520;51.198;4.468;2022-12-11T14:11:36;29.02;;;12.82;;
22705;SDS011;11520;51.198;4.468;2022-12-11T14:14:07;31.30;;;14.68;;
22705;SDS011;11520;51.198;4.468;2022-12-11T14:16:55;34.47;;;15.35;;
22705;SDS011;11520;51.198;4.468;2022-12-11T14:19:22;31.25;;;14.18;;
22705;SDS011;11520;51.198;4.468;2022-12-11T14:22:02;36.92;;;15.73;;
22705;SDS011;11520;51.198;4.468;2022-12-11T14:30:55;33.95;;;15.32;;
22705;SDS011;11520;51.198;4.468;2022-12-11T14:33:36;37.35;;;17.00;;
22705;SDS011;11520;51.198;4.468;2022-12-11T14:36:09;33.10;;;14.93;;
22705;SDS011;11520;51.198;4.468;2022-12-11T14:47:21;30.83;;;15.70;;
22705;SDS011;11520;51.198;4.468;2022-12-11T14:50:15;39.50;;;17.30;;
22705;SDS011;11520;51.198;4.468;2022-12-11T14:53:32;36.90;;;16.75;;
22705;SDS011;11520;51.198;4.468;2022-12-11T14:56:03;33.15;;;16.08;;
22705;SDS011;11520;51.198;4.468;2022-12-11T15:01:33;39.00;;;17.38;;
22705;SDS011;11520;51.198;4.468;2022-12-11T15:04:13;38.90;;;18.90;;
22705;SDS011;11520;51.198;4.468;2022-12-11T15:06:49;43.70;;;19.83;;
22705;SDS011;11520;51.198;4.468;2022-12-11T15:09:24;41.28;;;18.90;;
22705;SDS011;11520;51.198;4.468;2022-12-11T15:12:16;38.92;;;18.38;;
22705;SDS011;11520;51.198;4.468;2022-12-11T15:14:54;36.05;;;17.02;;
22705;SDS011;11520;51.198;4.468;2022-12-11T15:17:27;45.15;;;19.20;;
22705;SDS011;11520;51.198;4.468;2022-12-11T15:20:39;37.63;;;18.02;;
22705;SDS011;11520;51.198;4.468;2022-12-11T15:22:52;39.92;;;19.70;;
22705;SDS011;11520;51.198;4.468;2022-12-11T15:25:24;44.70;;;21.02;;
22705;SDS011;11520;51.198;4.468;2022-12-11T15:30:29;48.38;;;21.02;;
22705;SDS011;11520;51.198;4.468;2022-12-11T15:35:36;41.35;;;20.15;;
22705;SDS011;11520;51.198;4.468;2022-12-11T15:38:23;54.70;;;21.92;;
22705;SDS011;11520;51.198;4.468;2022-12-11T15:41:02;45.25;;;20.50;;
22705;SDS011;11520;51.198;4.468;2022-12-11T15:43:30;45.58;;;21.38;;
22705;SDS011;11520;51.198;4.468;2022-12-11T15:46:01;41.80;;;18.65;;
22705;SDS011;11520;51.198;4.468;2022-12-11T15:48:27;39.65;;;18.67;;
22705;SDS011;11520;51.198;4.468;2022-12-11T15:50:54;42.42;;;18.95;;
22705;SDS011;11520;51.198;4.468;2022-12-11T15:53:26;43.20;;;20.63;;
22705;SDS011;11520;51.198;4.468;2022-12-11T15:55:52;46.88;;;20.48;;
22705;SDS011;11520;51.198;4.468;2022-12-11T16:00:48;51.10;;;23.48;;
22705;SDS011;11520;51.198;4.468;2022-12-11T16:05:48;46.72;;;20.88;;
22705;SDS011;11520;51.198;4.468;2022-12-11T16:08:24;48.28;;;21.15;;
22705;SDS011;11520;51.198;4.468;2022-12-11T16:10:56;42.92;;;21.52;;
22705;SDS011;11520;51.198;4.468;2022-12-11T16:16:43;42.85;;;20.67;;
22705;SDS011;11520;51.198;4.468;2022-12-11T16:19:09;43.10;;;20.95;;
22705;SDS011;11520;51.198;4.468;2022-12-11T16:21:37;45.72;;;21.27;;
22705;SDS011;11520;51.198;4.468;2022-12-11T16:24:05;45.55;;;21.55;;
22705;SDS011;11520;51.198;4.468;2022-12-11T16:26:32;42.40;;;19.48;;
22705;SDS011;11520;51.198;4.468;2022-12-11T16:31:36;43.80;;;20.52;;
22705;SDS011;11520;51.198;4.468;2022-12-11T16:37:25;42.92;;;19.95;;
22705;SDS011;11520;51.198;4.468;2022-12-11T16:39:54;43.58;;;19.63;;
22705;SDS011;11520;51.198;4.468;2022-12-11T16:45:39;44.72;;;20.33;;
22705;SDS011;11520;51.198;4.468;2022-12-11T16:48:10;45.37;;;21.23;;
22705;SDS011;11520;51.198;4.468;2022-12-11T16:50:38;44.67;;;20.38;;
22705;SDS011;11520;51.198;4.468;2022-12-11T16:53:05;43.35;;;20.55;;
22705;SDS011;11520;51.198;4.468;2022-12-11T16:55:31;42.60;;;21.23;;
22705;SDS011;11520;51.198;4.468;2022-12-11T16:57:56;42.38;;;21.50;;
22705;SDS011;11520;51.198;4.468;2022-12-11T17:00:23;46.97;;;21.88;;
22705;SDS011;11520;51.198;4.468;2022-12-11T17:02:55;44.78;;;21.08;;
22705;SDS011;11520;51.198;4.468;2022-12-11T17:05:21;48.03;;;22.05;;
22705;SDS011;11520;51.198;4.468;2022-12-11T17:10:22;47.25;;;21.85;;
22705;SDS011;11520;51.198;4.468;2022-12-11T17:12:48;45.78;;;21.90;;
22705;SDS011;11520;51.198;4.468;2022-12-11T17:15:17;45.83;;;21.20;;
22705;SDS011;11520;51.198;4.468;2022-12-11T17:20:12;46.38;;;21.33;;
22705;SDS011;11520;51.198;4.468;2022-12-11T17:22:47;47.33;;;22.80;;
22705;SDS011;11520;51.198;4.468;2022-12-11T17:25:14;48.40;;;22.75;;
22705;SDS011;11520;51.198;4.468;2022-12-11T17:27:47;44.03;;;22.13;;
22705;SDS011;11520;51.198;4.468;2022-12-11T17:30:14;47.85;;;22.90;;
22705;SDS011;11520;51.198;4.468;2022-12-11T17:32:41;45.00;;;22.50;;
22705;SDS011;11520;51.198;4.468;2022-12-11T17:35:13;51.33;;;23.98;;
22705;SDS011;11520;51.198;4.468;2022-12-11T17:37:42;44.45;;;23.75;;
22705;SDS011;11520;51.198;4.468;2022-12-11T17:40:14;53.45;;;24.52;;
22705;SDS011;11520;51.198;4.468;2022-12-11T17:42:43;42.55;;;21.50;;
22705;SDS011;11520;51.198;4.468;2022-12-11T17:45:12;52.22;;;25.23;;
22705;SDS011;11520;51.198;4.468;2022-12-11T17:50:13;51.78;;;24.83;;
22705;SDS011;11520;51.198;4.468;2022-12-11T17:56:14;49.42;;;23.75;;
22705;SDS011;11520;51.198;4.468;2022-12-11T17:58:40;50.38;;;24.35;;
22705;SDS011;11520;51.198;4.468;2022-12-11T18:01:07;55.08;;;25.42;;
22705;SDS011;11520;51.198;4.468;2022-12-11T18:03:34;52.97;;;24.23;;
22705;SDS011;11520;51.198;4.468;2022-12-11T18:06:03;53.03;;;24.77;;
22705;SDS011;11520;51.198;4.468;2022-12-11T18:15:01;52.10;;;24.02;;
22705;SDS011;11520;51.198;4.468;2022-12-11T18:20:37;47.70;;;24.63;;
22705;SDS011;11520;51.198;4.468;2022-12-11T18:26:12;51.17;;;26.08;;
22705;SDS011;11520;51.198;4.468;2022-12-11T18:28:43;51.58;;;26.90;;
22705;SDS011;11520;51.198;4.468;2022-12-11T18:33:39;57.15;;;26.02;;
22705;SDS011;11520;51.198;4.468;2022-12-11T18:36:08;50.28;;;25.70;;
22705;SDS011;11520;51.198;4.468;2022-12-11T18:46:37;48.47;;;25.90;;
22705;SDS011;11520;51.198;4.468;2022-12-11T18:49:03;55.90;;;26.05;;
22705;SDS011;11520;51.198;4.468;2022-12-11T18:54:10;48.83;;;25.10;;
22705;SDS011;11520;51.198;4.468;2022-12-11T18:56:38;47.80;;;24.75;;
22705;SDS011;11520;51.198;4.468;2022-12-11T18:59:16;43.22;;;24.00;;